createdAt,value
2022-11-24T00:01:08.389Z,9.00
2022-11-24T00:03:37.837Z,9.00
2022-11-24T00:06:07.580Z,9.00
2022-11-24T00:08:35.367Z,9.00
2022-11-24T00:11:10.961Z,9.00
2022-11-24T00:13:41.400Z,9.00
2022-11-24T00:16:12.633Z,9.00
2022-11-24T00:18:40.918Z,9.00
2022-11-24T00:21:07.653Z,9.00
2022-11-24T00:23:35.494Z,8.90
2022-11-24T00:26:17.102Z,8.90
2022-11-24T00:28:48.465Z,8.90
2022-11-24T00:31:19.804Z,8.90
2022-11-24T00:33:48.103Z,8.90
2022-11-24T00:36:15.770Z,8.90
2022-11-24T00:38:42.417Z,8.90
2022-11-24T00:41:09.270Z,8.80
2022-11-24T00:43:35.869Z,8.90
2022-11-24T00:46:02.819Z,8.80
2022-11-24T00:48:32.831Z,8.80
2022-11-24T00:51:02.298Z,8.80
2022-11-24T00:53:31.791Z,8.80
2022-11-24T00:55:58.440Z,8.70
2022-11-24T00:58:25.775Z,8.70
2022-11-24T01:00:56.098Z,8.60
2022-11-24T01:03:22.756Z,8.60
2022-11-24T01:05:49.395Z,8.60
2022-11-24T01:08:16.121Z,8.60
2022-11-24T01:10:42.783Z,8.60
2022-11-24T01:13:09.408Z,8.50
2022-11-24T01:15:36.811Z,8.50
2022-11-24T01:18:08.333Z,8.50
2022-11-24T01:20:36.579Z,8.50
2022-11-24T01:23:03.130Z,8.40
2022-11-24T01:25:29.753Z,8.50
2022-11-24T01:27:56.344Z,8.50
2022-11-24T01:30:23.086Z,8.50
2022-11-24T01:32:49.799Z,8.50
2022-11-24T01:35:16.455Z,8.50
2022-11-24T01:37:45.535Z,8.60
2022-11-24T01:40:14.788Z,8.70
2022-11-24T01:42:50.292Z,8.80
2022-11-24T01:45:31.929Z,8.90
2022-11-24T01:48:00.813Z,9.00
2022-11-24T01:50:27.835Z,9.20
2022-11-24T01:52:56.072Z,9.20
2022-11-24T01:55:41.327Z,9.30
2022-11-24T01:58:12.911Z,9.40
2022-11-24T02:00:43.112Z,9.50
2022-11-24T02:03:14.372Z,9.50
2022-11-24T02:05:51.139Z,9.40
2022-11-24T02:08:38.247Z,9.40
2022-11-24T02:11:06.060Z,9.40
2022-11-24T02:13:36.053Z,9.40
2022-11-24T02:16:03.250Z,9.40
2022-11-24T02:18:30.121Z,9.40
2022-11-24T02:20:57.105Z,9.30
2022-11-24T02:23:43.025Z,9.20
2022-11-24T02:26:39.021Z,9.20
2022-11-24T02:29:06.270Z,9.20
2022-11-24T02:31:33.325Z,9.10
2022-11-24T02:34:00.015Z,9.10
2022-11-24T02:36:26.690Z,9.10
2022-11-24T02:38:53.333Z,9.10
2022-11-24T02:41:22.534Z,9.10
2022-11-24T02:43:54.957Z,9.10
2022-11-24T02:46:21.781Z,9.10
2022-11-24T02:48:48.405Z,9.10
2022-11-24T02:51:15.303Z,9.10
2022-11-24T02:53:41.907Z,9.10
2022-11-24T02:56:08.585Z,9.00
2022-11-24T02:58:37.467Z,9.00
2022-11-24T03:01:06.413Z,9.00
2022-11-24T03:03:33.213Z,8.90
2022-11-24T03:06:02.104Z,8.90
2022-11-24T03:08:28.751Z,8.80
2022-11-24T03:10:55.491Z,8.70
2022-11-24T03:13:22.142Z,8.70
2022-11-24T03:15:48.894Z,8.60
2022-11-24T03:18:18.093Z,8.50
2022-11-24T03:20:47.210Z,8.50
2022-11-24T03:23:13.898Z,8.40
2022-11-24T03:25:42.986Z,8.30
2022-11-24T03:28:09.592Z,8.30
2022-11-24T03:30:38.568Z,8.30
2022-11-24T03:33:08.245Z,8.20
2022-11-24T03:35:34.828Z,8.20
2022-11-24T03:38:01.503Z,8.20
2022-11-24T03:40:28.301Z,8.20
2022-11-24T03:42:54.930Z,8.20
2022-11-24T03:48:10.534Z,8.30
2022-11-24T03:50:37.149Z,8.30
2022-11-24T03:53:04.124Z,8.30
2022-11-24T03:55:30.842Z,8.30
2022-11-24T03:57:57.445Z,8.30
2022-11-24T04:00:24.260Z,8.30
2022-11-24T04:02:53.109Z,8.30
2022-11-24T04:05:22.241Z,8.30
2022-11-24T04:07:51.494Z,8.30
2022-11-24T04:10:18.129Z,8.30
2022-11-24T04:12:44.732Z,8.30
2022-11-24T04:15:14.457Z,8.30
2022-11-24T04:17:41.289Z,8.30
2022-11-24T04:20:08.774Z,8.30
2022-11-24T04:22:35.739Z,8.20
2022-11-24T04:25:05.781Z,8.20
2022-11-24T04:27:35.558Z,8.30
2022-11-24T04:30:03.250Z,8.20
2022-11-24T04:32:32.427Z,8.20
2022-11-24T04:34:58.998Z,8.20
2022-11-24T04:37:25.648Z,8.20
2022-11-24T04:39:52.271Z,8.20
2022-11-24T04:42:18.909Z,8.20
2022-11-24T04:44:47.966Z,8.20
2022-11-24T04:47:26.541Z,8.30
2022-11-24T04:49:56.233Z,8.30
2022-11-24T04:52:24.206Z,8.20
2022-11-24T04:54:51.267Z,8.30
2022-11-24T04:57:25.687Z,8.30
2022-11-24T04:59:55.169Z,8.30
2022-11-24T05:02:22.467Z,8.40
2022-11-24T05:04:51.827Z,8.30
2022-11-24T05:07:19.703Z,8.40
2022-11-24T05:10:06.172Z,8.40
2022-11-24T05:12:33.211Z,8.40
2022-11-24T05:15:01.883Z,8.50
2022-11-24T05:17:30.225Z,8.50
2022-11-24T05:19:57.397Z,8.40
2022-11-24T05:22:24.082Z,8.40
2022-11-24T05:24:50.933Z,8.40
2022-11-24T05:27:17.793Z,8.40
2022-11-24T05:29:44.392Z,8.30
2022-11-24T05:32:11.057Z,8.30
2022-11-24T05:34:37.702Z,8.30
2022-11-24T05:37:04.597Z,8.30
2022-11-24T05:39:37.399Z,8.30
2022-11-24T05:42:25.170Z,8.30
2022-11-24T05:44:52.598Z,8.30
2022-11-24T05:47:19.536Z,8.20
2022-11-24T05:49:48.984Z,8.20
2022-11-24T05:52:16.385Z,8.20
2022-11-24T05:54:43.074Z,8.10
2022-11-24T05:57:09.762Z,8.10
2022-11-24T05:59:36.457Z,8.10
2022-11-24T06:02:03.451Z,8.20
2022-11-24T06:04:33.250Z,8.10
2022-11-24T06:07:00.033Z,8.10
2022-11-24T06:09:26.928Z,8.10
2022-11-24T06:11:53.669Z,8.00
2022-11-24T06:14:20.541Z,8.00
2022-11-24T06:16:47.336Z,8.10
2022-11-24T06:19:14.017Z,8.00
2022-11-24T06:21:40.742Z,8.00
2022-11-24T06:24:07.782Z,8.00
2022-11-24T06:26:34.529Z,8.00
2022-11-24T06:29:03.818Z,8.00
2022-11-24T06:31:32.818Z,8.00
2022-11-24T06:33:59.864Z,8.00
2022-11-24T06:36:27.018Z,7.90
2022-11-24T06:38:56.602Z,7.90
2022-11-24T06:41:23.278Z,7.90
2022-11-24T06:43:50.082Z,7.90
2022-11-24T06:46:16.813Z,7.90
2022-11-24T06:48:43.513Z,8.00
2022-11-24T06:51:13.224Z,7.90
2022-11-24T06:53:41.110Z,7.90
2022-11-24T06:56:15.699Z,7.90
2022-11-24T06:58:45.513Z,7.90
2022-11-24T07:01:20.294Z,7.90
2022-11-24T07:03:48.104Z,7.90
2022-11-24T07:06:17.799Z,7.90
2022-11-24T07:08:44.994Z,7.90
2022-11-24T07:11:15.526Z,7.90
2022-11-24T07:13:43.535Z,7.90
2022-11-24T07:16:19.259Z,7.90
2022-11-24T07:18:47.274Z,7.90
2022-11-24T07:21:16.638Z,7.90
2022-11-24T07:23:45.934Z,8.00
2022-11-24T07:26:15.480Z,7.90
2022-11-24T07:28:42.107Z,7.90
2022-11-24T07:31:24.713Z,8.00
2022-11-24T07:33:55.181Z,7.90
2022-11-24T07:36:23.005Z,7.90
2022-11-24T07:38:52.336Z,8.00
2022-11-24T07:41:22.602Z,8.00
2022-11-24T07:43:50.599Z,8.00
2022-11-24T07:46:19.350Z,8.00
2022-11-24T07:48:46.624Z,8.10
2022-11-24T07:51:13.306Z,8.00
2022-11-24T07:53:40.172Z,8.00
2022-11-24T07:56:07.654Z,8.10
2022-11-24T07:58:36.404Z,8.10
2022-11-24T08:01:11.337Z,8.10
2022-11-24T08:03:38.425Z,8.10
2022-11-24T08:06:23.552Z,8.10
2022-11-24T08:08:52.082Z,8.10
2022-11-24T08:11:21.261Z,8.10
2022-11-24T08:13:47.989Z,8.20
2022-11-24T08:16:17.745Z,8.20
2022-11-24T08:18:53.202Z,8.20
2022-11-24T08:21:23.435Z,8.20
2022-11-24T08:23:55.945Z,8.20
2022-11-24T08:26:24.840Z,8.20
2022-11-24T08:28:55.317Z,8.20
2022-11-24T08:31:32.449Z,8.20
2022-11-24T08:34:00.222Z,8.20
2022-11-24T08:36:26.964Z,8.30
2022-11-24T08:39:00.349Z,8.30
2022-11-24T08:41:28.266Z,8.20
2022-11-24T08:43:55.186Z,8.20
2022-11-24T08:46:22.171Z,8.20
2022-11-24T08:48:50.846Z,8.20
2022-11-24T08:51:21.962Z,8.20
2022-11-24T08:53:48.707Z,8.20
2022-11-24T08:56:17.910Z,8.20
2022-11-24T08:58:44.648Z,8.20
2022-11-24T09:01:14.117Z,8.20
2022-11-24T09:03:50.437Z,8.20
2022-11-24T09:06:19.686Z,8.20
2022-11-24T09:08:46.371Z,8.30
2022-11-24T09:11:15.102Z,8.30
2022-11-24T09:13:42.078Z,8.40
2022-11-24T09:16:11.821Z,8.50
2022-11-24T09:18:39.108Z,8.60
2022-11-24T09:21:10.906Z,8.70
2022-11-24T09:23:38.388Z,8.90
2022-11-24T09:26:13.016Z,9.10
2022-11-24T09:28:40.224Z,9.20
2022-11-24T09:31:14.152Z,9.20
2022-11-24T09:33:41.391Z,9.30
2022-11-24T09:36:08.748Z,9.30
2022-11-24T09:38:35.735Z,9.30
2022-11-24T09:41:17.806Z,9.30
2022-11-24T09:44:03.334Z,9.30
2022-11-24T09:47:10.204Z,9.30
2022-11-24T09:49:56.074Z,9.30
2022-11-24T09:52:50.494Z,9.30
2022-11-24T09:55:23.040Z,9.30
2022-11-24T09:58:01.868Z,9.30
2022-11-24T10:00:30.036Z,9.40
2022-11-24T10:02:57.936Z,9.40
2022-11-24T10:05:27.994Z,9.50
2022-11-24T10:08:17.342Z,9.70
2022-11-24T10:10:54.591Z,9.90
2022-11-24T10:13:47.435Z,10.30
2022-11-24T10:16:45.330Z,10.50
2022-11-24T10:19:14.773Z,10.40
2022-11-24T10:21:51.840Z,10.40
2022-11-24T10:24:43.839Z,10.30
2022-11-24T10:27:20.868Z,10.20
2022-11-24T10:29:51.677Z,10.20
2022-11-24T10:32:22.078Z,10.20
2022-11-24T10:34:52.381Z,10.30
2022-11-24T10:37:40.686Z,10.30
2022-11-24T10:40:56.062Z,10.30
2022-11-24T10:43:20.138Z,10.20
2022-11-24T10:45:49.299Z,10.10
2022-11-24T10:48:25.754Z,10.10
2022-11-24T10:51:06.448Z,10.10
2022-11-24T10:53:35.525Z,10.10
2022-11-24T10:56:04.862Z,10.10
2022-11-24T10:58:38.498Z,10.00
2022-11-24T11:01:14.632Z,10.00
2022-11-24T11:03:58.785Z,10.00
2022-11-24T11:06:32.074Z,10.20
2022-11-24T11:09:20.863Z,10.30
2022-11-24T11:11:51.188Z,10.50
2022-11-24T11:14:35.662Z,10.70
2022-11-24T11:17:02.782Z,11.20
2022-11-24T11:19:49.291Z,11.50
2022-11-24T11:22:33.008Z,11.40
2022-11-24T11:25:18.618Z,11.40
2022-11-24T11:27:45.556Z,11.10
2022-11-24T11:36:13.573Z,10.80
2022-11-24T11:38:41.473Z,10.80
2022-11-24T11:41:21.590Z,10.70
2022-11-24T11:43:54.606Z,10.70
2022-11-24T11:46:21.646Z,10.60
2022-11-24T11:48:48.441Z,10.70
2022-11-24T11:51:33.099Z,10.70
2022-11-24T11:54:09.590Z,10.80
2022-11-24T11:56:44.475Z,11.00
2022-11-24T11:59:26.201Z,10.90
2022-11-24T12:02:19.963Z,11.00
2022-11-24T12:05:01.863Z,11.10
2022-11-24T12:08:06.413Z,11.10
2022-11-24T12:10:45.379Z,11.10
2022-11-24T12:13:36.471Z,11.40
2022-11-24T12:16:17.079Z,11.50
2022-11-24T12:18:58.317Z,11.40
2022-11-24T12:21:43.463Z,12.80
2022-11-24T12:24:29.006Z,14.10
2022-11-24T12:27:10.079Z,15.70
2022-11-24T12:30:04.078Z,16.90
2022-11-24T12:32:39.697Z,17.60
2022-11-24T12:35:06.336Z,18.40
2022-11-24T12:37:59.656Z,17.90
2022-11-24T12:41:18.263Z,18.30
2022-11-24T12:43:53.238Z,18.70
2022-11-24T12:46:44.760Z,18.50
2022-11-24T12:49:37.808Z,17.90
2022-11-24T12:52:25.776Z,17.10
2022-11-24T12:55:01.212Z,16.60
2022-11-24T12:57:31.058Z,15.60
2022-11-24T13:00:07.266Z,14.80
2022-11-24T13:02:39.748Z,14.10
2022-11-24T13:05:32.045Z,13.60
2022-11-24T13:08:02.265Z,13.30
2022-11-24T13:10:55.705Z,13.60
2022-11-24T13:13:28.441Z,13.70
2022-11-24T13:16:35.290Z,13.70
2022-11-24T13:18:57.474Z,13.90
2022-11-24T13:21:35.790Z,14.80
2022-11-24T13:26:54.680Z,16.90
2022-11-24T13:29:47.115Z,16.90
2022-11-24T13:32:19.936Z,17.30
2022-11-24T13:34:55.043Z,17.30
2022-11-24T13:37:29.028Z,16.30
2022-11-24T13:40:24.339Z,15.20
2022-11-24T13:42:57.534Z,14.70
2022-11-24T13:45:39.880Z,13.90
2022-11-24T13:48:24.552Z,13.20
2022-11-24T13:50:54.000Z,12.90
2022-11-24T13:53:44.955Z,12.90
2022-11-24T13:56:17.146Z,12.80
2022-11-24T13:58:44.839Z,12.50
2022-11-24T14:01:24.838Z,12.50
2022-11-24T14:06:55.973Z,14.00
2022-11-24T14:09:36.500Z,15.20
2022-11-24T14:12:13.526Z,16.00
2022-11-24T14:14:44.406Z,16.40
2022-11-24T14:17:16.922Z,16.40
2022-11-24T14:19:46.689Z,16.50
2022-11-24T14:22:22.844Z,15.20
2022-11-24T14:24:57.891Z,14.60
2022-11-24T14:27:35.883Z,13.80
2022-11-24T14:30:21.828Z,13.20
2022-11-24T14:33:02.622Z,12.90
2022-11-24T14:35:32.606Z,12.70
2022-11-24T14:38:01.802Z,12.50
2022-11-24T14:40:43.747Z,12.10
2022-11-24T14:43:24.701Z,12.00
2022-11-24T14:45:56.309Z,11.90
2022-11-24T14:48:30.623Z,12.00
2022-11-24T14:51:08.419Z,12.40
2022-11-24T14:53:40.808Z,13.00
2022-11-24T14:56:28.707Z,13.30
2022-11-24T14:58:56.827Z,13.60
2022-11-24T15:01:33.971Z,13.70
2022-11-24T15:07:20.956Z,13.50
2022-11-24T15:09:50.148Z,13.30
2022-11-24T15:12:31.188Z,13.00
2022-11-24T15:15:22.851Z,12.70
2022-11-24T15:17:57.109Z,12.50
2022-11-24T15:20:41.727Z,12.30
2022-11-24T15:23:21.865Z,12.10
2022-11-24T15:25:52.660Z,11.90
2022-11-24T15:28:24.520Z,11.80
2022-11-24T15:30:55.726Z,11.70
2022-11-24T15:33:23.427Z,11.50
2022-11-24T15:35:50.151Z,11.40
2022-11-24T15:38:17.503Z,11.30
2022-11-24T15:40:46.764Z,11.10
2022-11-24T15:43:33.481Z,11.00
2022-11-24T15:46:01.059Z,10.70
2022-11-24T15:48:31.367Z,10.60
2022-11-24T15:51:01.015Z,10.60
2022-11-24T15:53:44.012Z,10.40
2022-11-24T15:56:36.770Z,10.30
2022-11-24T15:59:07.461Z,10.20
2022-11-24T16:01:34.688Z,10.10
2022-11-24T16:04:02.144Z,10.00
2022-11-24T16:06:30.987Z,9.90
2022-11-24T16:08:58.277Z,9.90
2022-11-24T16:11:25.284Z,9.80
2022-11-24T16:13:54.023Z,9.70
2022-11-24T16:16:22.776Z,9.60
2022-11-24T16:18:49.644Z,9.60
2022-11-24T16:21:18.787Z,9.40
2022-11-24T16:23:46.511Z,9.30
2022-11-24T16:26:13.310Z,9.20
2022-11-24T16:28:40.602Z,9.10
2022-11-24T16:31:09.890Z,9.10
2022-11-24T16:33:40.936Z,9.00
2022-11-24T16:36:10.716Z,8.90
2022-11-24T16:38:37.466Z,8.90
2022-11-24T16:41:04.404Z,8.80
2022-11-24T16:43:31.161Z,8.70
2022-11-24T16:46:19.429Z,8.60
2022-11-24T16:48:48.002Z,8.60
2022-11-24T16:51:15.730Z,8.50
2022-11-24T16:53:43.222Z,8.40
2022-11-24T16:56:12.373Z,8.40
2022-11-24T16:58:40.745Z,8.40
2022-11-24T17:01:12.255Z,8.30
2022-11-24T17:03:39.852Z,8.30
2022-11-24T17:06:09.127Z,8.20
2022-11-24T17:08:37.483Z,8.20
2022-11-24T17:11:07.751Z,8.20
2022-11-24T17:13:34.612Z,8.10
2022-11-24T17:16:08.673Z,8.10
2022-11-24T17:18:35.688Z,8.00
2022-11-24T17:21:07.785Z,8.00
2022-11-24T17:23:36.467Z,8.00
2022-11-24T17:26:04.579Z,8.00
2022-11-24T17:28:33.599Z,8.00
2022-11-24T17:31:09.419Z,7.90
2022-11-24T17:33:41.155Z,7.90
2022-11-24T17:36:08.085Z,7.90
2022-11-24T17:38:37.942Z,7.80
2022-11-24T17:41:05.336Z,7.70
2022-11-24T17:43:35.755Z,7.70
2022-11-24T17:46:04.003Z,7.60
2022-11-24T17:48:34.905Z,7.50
2022-11-24T17:51:07.981Z,7.50
2022-11-24T17:53:39.327Z,7.40
2022-11-24T17:56:06.977Z,7.40
2022-11-24T17:58:41.318Z,7.30
2022-11-24T18:01:12.906Z,7.30
2022-11-24T18:03:40.451Z,7.30
2022-11-24T18:06:12.041Z,7.20
2022-11-24T18:08:41.255Z,7.10
2022-11-24T18:11:10.523Z,7.10
2022-11-24T18:16:24.550Z,7.00
2022-11-24T18:19:07.279Z,7.00
2022-11-24T18:21:34.842Z,7.00
2022-11-24T18:24:01.629Z,7.00
2022-11-24T18:26:28.627Z,7.00
2022-11-24T18:28:55.425Z,7.00
2022-11-24T18:31:22.456Z,7.00
2022-11-24T18:33:49.271Z,6.90
2022-11-24T18:36:18.428Z,6.90
2022-11-24T18:38:47.308Z,6.90
2022-11-24T18:41:18.827Z,6.90
2022-11-24T18:43:45.621Z,6.90
2022-11-24T18:46:18.941Z,6.90
2022-11-24T18:48:46.158Z,6.90
2022-11-24T18:51:16.551Z,6.90
2022-11-24T18:53:45.329Z,6.90
2022-11-24T18:56:16.563Z,6.80
2022-11-24T18:58:43.948Z,6.80
2022-11-24T19:01:12.485Z,6.80
2022-11-24T19:03:47.862Z,6.70
2022-11-24T19:06:23.947Z,6.60
2022-11-24T19:08:55.973Z,6.60
2022-11-24T19:11:28.647Z,6.60
2022-11-24T19:13:56.455Z,6.50
2022-11-24T19:16:24.632Z,6.50
2022-11-24T19:18:54.273Z,6.50
2022-11-24T19:21:21.876Z,6.50
2022-11-24T19:23:51.296Z,6.40
2022-11-24T19:26:20.623Z,6.30
2022-11-24T19:28:47.488Z,6.30
2022-11-24T19:31:15.860Z,6.20
2022-11-24T19:33:43.700Z,6.20
2022-11-24T19:36:19.624Z,6.20
2022-11-24T19:38:51.278Z,6.10
2022-11-24T19:41:20.058Z,6.10
2022-11-24T19:43:48.095Z,6.10
2022-11-24T19:46:17.397Z,6.00
2022-11-24T19:48:50.343Z,6.00
2022-11-24T19:51:25.653Z,6.00
2022-11-24T19:53:53.007Z,5.90
2022-11-24T19:56:22.197Z,5.90
2022-11-24T19:58:49.980Z,5.90
2022-11-24T20:01:20.151Z,5.90
2022-11-24T20:03:49.513Z,5.90
2022-11-24T20:06:16.705Z,5.80
2022-11-24T20:08:43.989Z,5.80
2022-11-24T20:11:18.410Z,5.70
2022-11-24T20:13:48.444Z,5.70
2022-11-24T20:16:26.375Z,5.60
2022-11-24T20:18:55.173Z,5.50
2022-11-24T20:21:28.546Z,5.40
2022-11-24T20:24:01.074Z,5.30
2022-11-24T20:26:32.954Z,5.30
2022-11-24T20:29:00.637Z,5.20
2022-11-24T20:31:33.127Z,5.20
2022-11-24T20:34:02.037Z,5.20
2022-11-24T20:36:30.647Z,5.20
2022-11-24T20:39:00.409Z,5.10
2022-11-24T20:41:30.349Z,5.10
2022-11-24T20:43:59.789Z,5.10
2022-11-24T20:46:31.191Z,5.10
2022-11-24T20:48:58.607Z,5.10
2022-11-24T20:51:31.093Z,5.00
2022-11-24T20:54:00.738Z,4.90
2022-11-24T20:56:33.454Z,4.90
2022-11-24T20:59:00.744Z,4.90
2022-11-24T21:01:38.569Z,4.90
2022-11-24T21:04:11.307Z,4.80
2022-11-24T21:06:38.687Z,4.80
2022-11-24T21:09:07.089Z,4.80
2022-11-24T21:11:34.692Z,4.80
2022-11-24T21:14:02.098Z,4.80
2022-11-24T21:16:31.179Z,4.70
2022-11-24T21:19:00.060Z,4.70
2022-11-24T21:21:34.572Z,4.70
2022-11-24T21:24:25.722Z,4.70
2022-11-24T21:26:52.791Z,4.70
2022-11-24T21:29:22.353Z,4.80
2022-11-24T21:31:53.951Z,4.80
2022-11-24T21:34:22.920Z,4.80
2022-11-24T21:36:49.577Z,4.80
2022-11-24T21:39:16.978Z,4.70
2022-11-24T21:41:43.760Z,4.70
2022-11-24T21:44:12.251Z,4.70
2022-11-24T21:46:44.652Z,4.60
2022-11-24T21:49:17.234Z,4.60
2022-11-24T21:51:43.909Z,4.50
2022-11-24T21:54:10.672Z,4.50
2022-11-24T21:56:39.697Z,4.60
2022-11-24T21:59:06.418Z,4.50
2022-11-24T22:01:35.860Z,4.50
2022-11-24T22:04:04.952Z,4.50
2022-11-24T22:06:33.193Z,4.60
2022-11-24T22:08:59.935Z,4.50
2022-11-24T22:11:29.231Z,4.40
2022-11-24T22:13:55.884Z,4.40
2022-11-24T22:16:24.238Z,4.30
2022-11-24T22:18:53.980Z,4.20
2022-11-24T22:21:24.283Z,4.20
2022-11-24T22:23:55.244Z,4.20
2022-11-24T22:26:23.387Z,4.10
2022-11-24T22:28:50.646Z,4.00
2022-11-24T22:31:23.030Z,3.90
2022-11-24T22:33:53.579Z,3.80
2022-11-24T22:36:25.077Z,3.80
2022-11-24T22:38:56.799Z,3.80
2022-11-24T22:41:24.495Z,3.80
2022-11-24T22:43:53.600Z,3.80
2022-11-24T22:46:25.202Z,3.80
2022-11-24T22:48:53.402Z,3.80
2022-11-24T22:51:27.960Z,3.80
2022-11-24T22:53:56.932Z,3.70
2022-11-24T22:56:24.442Z,3.70
2022-11-24T22:58:51.330Z,3.70
2022-11-24T23:01:19.057Z,3.70
2022-11-24T23:03:46.880Z,3.60
2022-11-24T23:06:16.634Z,3.60
2022-11-24T23:08:43.909Z,3.60
2022-11-24T23:11:19.968Z,3.60
2022-11-24T23:13:47.429Z,3.60
2022-11-24T23:16:15.161Z,3.60
2022-11-24T23:18:42.558Z,3.60
2022-11-24T23:21:12.951Z,3.60
2022-11-24T23:23:39.972Z,3.60
2022-11-24T23:26:11.643Z,3.50
2022-11-24T23:28:41.432Z,3.50
2022-11-24T23:31:11.035Z,3.60
2022-11-24T23:33:40.786Z,3.50
2022-11-24T23:36:10.664Z,3.50
2022-11-24T23:38:37.846Z,3.40
2022-11-24T23:41:10.789Z,3.40
2022-11-24T23:43:39.372Z,3.40
2022-11-24T23:46:17.829Z,3.40
2022-11-24T23:48:44.663Z,3.40
2022-11-24T23:51:18.667Z,3.50
2022-11-24T23:53:46.058Z,3.50
2022-11-24T23:56:15.071Z,3.50
2022-11-24T23:58:42.231Z,3.60
